Date,TemperatureHighF,TemperatureAvgF,TemperatureLowF,DewpointHighF,DewpointAvgF,DewpointLowF,HumidityHigh,HumidityAvg,HumidityLow,PressureMaxIn,PressureMinIn,WindSpeedMaxMPH,WindSpeedAvgMPH,GustSpeedMaxMPH,PrecipitationSumIn
2013-3-1,36.3,36.3,36.3,30.4,30.4,30.4,79,79,79,30.02,29.81,3,3,3,0.00
2013-3-2,36.3,29.6,22.7,30.4,24.7,19.2,88,82,78,30.32,29.95,8,2,8,0.00
2013-3-3,27.5,23.7,22.7,20.6,19.6,19.0,88,84,74,30.29,29.92,16,2,16,0.00
2013-3-4,24.6,24.6,24.6,19.0,19.0,19.0,79,79,79,30.36,30.01,5,5,5,0.00
2013-3-5,41.1,31.6,24.6,29.9,24.0,19.0,84,73,62,30.43,29.89,6,2,6,0.03
2013-3-6,41.2,39.0,30.6,30.1,28.9,20.5,85,67,62,30.42,29.91,9,0,9,0.01
2013-3-7,39.7,37.4,34.5,33.7,30.3,28.9,91,76,65,30.57,30.22,5,0,8,0.00
2013-3-8,40.5,36.4,32.4,31.3,28.9,26.3,91,75,59,30.76,30.38,17,1,17,0.15
2013-3-9,53.7,43.0,23.6,35.3,30.2,14.6,97,62,38,30.89,30.34,5,0,5,0.00
2013-3-10,65.9,55.7,45.6,38.8,34.6,27.6,54,45,35,30.42,30.06,11,1,11,0.00
2013-3-11,60.7,58.0,55.2,38.1,35.4,32.0,48,43,39,30.15,29.74,16,2,16,0.00
2013-3-12,55.2,44.9,36.5,37.2,34.1,19.4,97,69,48,30.20,29.78,13,1,13,0.00
2013-3-13,36.5,28.2,0.0,31.8,23.6,0.0,89,68,71,30.34,29.93,17,2,17,0.03
2013-3-14,32.3,23.2,0.0,21.3,16.4,0.0,83,59,57,30.54,30.12,18,2,20,0.02
2013-3-15,26.9,26.9,26.9,18.1,18.1,18.1,69,69,69,30.44,29.88,2,2,2,0.00
2013-3-16,33.5,29.2,26.9,30.3,22.8,18.1,92,77,69,30.28,29.80,6,1,6,0.04
2013-3-17,33.8,30.8,25.8,26.0,22.6,18.4,93,72,56,30.65,30.16,11,1,11,0.01
2013-3-18,30.5,30.5,30.5,19.4,19.4,19.4,63,63,63,30.61,29.75,1,1,1,0.00
2013-3-19,36.0,30.3,27.2,31.8,22.8,19.4,89,74,63,30.18,29.72,15,3,17,0.10
2013-3-20,32.1,27.8,23.8,27.0,22.3,18.9,92,80,74,30.28,29.91,18,3,18,0.02
2013-3-21,27.2,24.8,16.6,22.5,19.2,13.7,95,79,63,30.25,29.82,11,1,11,0.00
2013-3-22,29.6,26.1,24.8,23.3,22.2,21.8,89,85,76,30.34,29.89,14,2,14,0.00
2013-3-23,36.8,30.7,26.6,27.5,23.9,22.1,83,76,64,30.37,30.03,11,1,11,0.02
2013-3-24,41.0,35.1,21.7,25.6,24.4,20.4,95,65,52,30.41,29.69,9,0,9,0.09
2013-3-25,37.9,36.6,34.8,33.4,28.0,23.7,88,72,60,29.91,29.57,9,0,9,0.03
2013-3-26,45.2,38.3,34.8,32.8,31.2,29.2,87,76,56,30.24,29.79,16,1,16,0.00
2013-3-27,40.4,37.7,34.4,31.8,30.3,28.8,90,75,68,30.42,30.10,10,3,12,0.00
2013-3-28,40.4,36.5,35.6,34.8,31.4,29.1,91,82,77,30.54,30.20,10,5,10,0.05
2013-3-29,46.5,40.5,36.1,37.5,31.6,27.6,89,72,50,30.53,30.28,12,1,13,0.00
2013-3-30,51.4,43.2,24.7,32.0,28.6,9.4,96,57,41,30.68,30.33,11,1,11,0.00